Decoded Metar for YBBN (BRISBANE in AUSTRALIA) (IATA:BNE) | Meteo·Mobile Aviation Weather
aviador You're here:

YBBN Decoded Metar

BRISBANE in AUSTRALIA
Report Time2018-12-16 03:00:00
UTC Time2018-12-16 03:16:34
Flight Rules mvfr MVFR
Wind050° at 11 kt
W.Decomp.*RWY 01: 9.6 kt HW 5.3 kt RCW
RWY 32: 2.1 kt HW 10.8 kt RCW
W.Rank050° ranks 13
Current wind is above 050° avg. (7.7)
Visibility9999 m
Phenomena:Heavy Shower Rain
Clouds:Scattered 014 Hf
Broken 017 Hf
Broken 032 Hf
Expected CloudBase > 400 ft AGL from Temp-Dew spread
Ceiling1,700 ft
Temp24°C (ISA +9)
Dew Point23°C (94% RH)
QNH1009 hPa
Density Alt1,568 ft
Elevation16 ft
Report Wrong Elevation
Raw Report
METAR YBBN 160300Z 05011KT 9999 -SHRA SCT014 BKN017 BKN032 24/23 Q1009
TEMPO 0300/0600 2000 +SHRA BKN008=

Extra information for YBBN:More info

Metar Taf Metar & Taf Last 4 Metars F.Rules Stats Wind Profile Meteogram Temp Stats Airport Information Weather charts Add Link Nearby VenuesMetar ALERT Operation Metar Decoded Social comments